createdAt,value
2018-01-12T00:01:07.610Z,50.70
2018-01-12T00:03:35.139Z,40.70
2018-01-12T00:06:02.659Z,44.00
2018-01-12T00:08:30.215Z,48.50
2018-01-12T00:10:58.479Z,48.17
2018-01-12T00:13:25.978Z,47.43
2018-01-12T00:15:53.511Z,50.80
2018-01-12T00:18:21.779Z,45.93
2018-01-12T00:20:49.302Z,50.00
2018-01-12T00:23:16.822Z,47.80
2018-01-12T00:25:44.343Z,49.33
2018-01-12T00:28:12.658Z,48.30
2018-01-12T00:30:40.535Z,46.03
2018-01-12T00:33:08.043Z,49.10
2018-01-12T00:35:35.542Z,48.40
2018-01-12T00:38:03.062Z,50.50
2018-01-12T00:40:30.563Z,45.67
2018-01-12T00:42:58.087Z,49.70
2018-01-12T00:45:25.591Z,51.57
2018-01-12T00:47:53.110Z,48.87
2018-01-12T00:50:20.610Z,53.03
2018-01-12T00:52:48.155Z,53.17
2018-01-12T00:55:15.695Z,49.60
2018-01-12T00:57:43.975Z,54.00
2018-01-12T01:00:11.499Z,57.87
2018-01-12T01:02:39.003Z,56.30
2018-01-12T01:05:06.527Z,55.00
2018-01-12T01:07:34.027Z,60.50
2018-01-12T01:10:01.903Z,56.80
2018-01-12T01:12:29.438Z,51.17
2018-01-12T01:14:56.958Z,54.37
2018-01-12T01:17:24.464Z,51.43
2018-01-12T01:19:51.979Z,54.00
2018-01-12T01:22:19.502Z,62.47
2018-01-12T01:24:47.003Z,56.67
2018-01-12T01:27:14.835Z,58.97
2018-01-12T01:29:42.338Z,64.93
2018-01-12T01:32:09.863Z,49.50
2018-01-12T01:34:37.370Z,58.23
2018-01-12T01:37:05.635Z,62.50
2018-01-12T01:39:33.922Z,58.70
2018-01-12T01:42:02.190Z,54.90
2018-01-12T01:44:30.483Z,55.37
2018-01-12T01:46:57.982Z,52.60
2018-01-12T01:49:25.502Z,59.53
2018-01-12T01:51:53.003Z,55.87
2018-01-12T01:54:20.503Z,56.97
2018-01-12T01:56:48.030Z,57.63
2018-01-12T01:59:15.532Z,56.93
2018-01-12T02:01:43.818Z,54.70
2018-01-12T02:04:11.314Z,50.30
2018-01-12T02:06:38.838Z,55.87
2018-01-12T02:09:06.343Z,51.07
2018-01-12T02:11:33.846Z,53.17
2018-01-12T02:14:01.371Z,58.77
2018-01-12T02:16:28.871Z,49.10
2018-01-12T02:18:56.395Z,47.40
2018-01-12T02:21:23.899Z,53.70
2018-01-12T02:23:51.423Z,66.53
2018-01-12T02:26:19.687Z,50.67
2018-01-12T02:28:47.187Z,59.53
2018-01-12T02:31:14.713Z,53.53
2018-01-12T02:33:42.986Z,49.70
2018-01-12T02:36:11.278Z,51.53
2018-01-12T02:38:39.546Z,58.00
2018-01-12T02:41:07.836Z,62.80
2018-01-12T02:43:35.348Z,61.23
2018-01-12T02:46:02.847Z,64.40
2018-01-12T02:48:31.142Z,76.90
2018-01-12T02:50:58.642Z,73.23
2018-01-12T02:53:26.167Z,66.70
2018-01-12T02:55:53.666Z,64.50
2018-01-12T02:58:21.190Z,71.53
2018-01-12T03:00:48.691Z,57.27
2018-01-12T03:03:16.196Z,71.23
2018-01-12T03:05:43.719Z,72.07
2018-01-12T03:08:11.986Z,69.20
2018-01-12T03:10:39.515Z,73.57
2018-01-12T03:13:07.014Z,66.70
2018-01-12T03:15:35.287Z,68.50
2018-01-12T03:18:03.579Z,70.07
2018-01-12T03:20:31.851Z,62.90
2018-01-12T03:23:00.139Z,71.60
2018-01-12T03:25:27.639Z,64.30
2018-01-12T03:27:55.142Z,74.60
2018-01-12T03:30:23.435Z,67.57
2018-01-12T03:32:50.936Z,63.20
2018-01-12T03:35:18.458Z,69.67
2018-01-12T03:37:45.962Z,63.10
2018-01-12T03:40:13.462Z,64.80
2018-01-12T03:42:41.741Z,69.97
2018-01-12T03:45:09.239Z,72.97
2018-01-12T03:47:36.757Z,71.17
2018-01-12T03:50:05.017Z,68.90
2018-01-12T03:52:33.286Z,65.83
2018-01-12T03:55:00.803Z,66.60
2018-01-12T03:57:28.293Z,71.53
2018-01-12T03:59:55.812Z,67.87
2018-01-12T04:02:23.306Z,68.30
2018-01-12T04:04:50.793Z,70.93
2018-01-12T04:07:19.077Z,69.27
2018-01-12T04:09:46.578Z,61.83
2018-01-12T04:12:14.105Z,66.83
2018-01-12T04:14:41.614Z,65.83
2018-01-12T04:17:09.114Z,66.57
2018-01-12T04:19:36.639Z,63.50
2018-01-12T04:22:04.133Z,66.33
2018-01-12T04:24:31.654Z,65.97
2018-01-12T04:26:59.150Z,70.00
2018-01-12T04:29:26.641Z,57.50
2018-01-12T04:31:54.158Z,64.57
2018-01-12T04:34:22.417Z,61.30
2018-01-12T04:36:49.940Z,66.23
2018-01-12T04:39:17.434Z,76.97
2018-01-12T04:41:45.697Z,72.27
2018-01-12T04:44:13.210Z,68.93
2018-01-12T04:46:40.705Z,65.73
2018-01-12T04:49:08.222Z,64.33
2018-01-12T04:51:35.717Z,64.37
2018-01-12T04:54:03.214Z,61.30
2018-01-12T04:56:31.502Z,66.13
2018-01-12T04:58:58.998Z,79.20
2018-01-12T05:01:26.513Z,67.30
2018-01-12T05:03:54.844Z,72.13
2018-01-12T05:06:22.298Z,63.83
2018-01-12T05:08:49.817Z,61.83
2018-01-12T05:11:17.314Z,73.60
2018-01-12T05:13:44.830Z,76.73
2018-01-12T05:16:12.326Z,65.73
2018-01-12T05:18:39.822Z,66.17
2018-01-12T05:21:08.110Z,71.93
2018-01-12T05:23:36.375Z,69.63
2018-01-12T05:26:04.668Z,67.83
2018-01-12T05:28:32.931Z,67.40
2018-01-12T05:31:01.194Z,68.87
2018-01-12T05:33:28.722Z,64.70
2018-01-12T05:35:57.745Z,70.27
2018-01-12T05:38:25.266Z,70.53
2018-01-12T05:40:52.768Z,65.90
2018-01-12T05:43:20.267Z,72.73
2018-01-12T05:45:47.782Z,58.53
2018-01-12T05:48:15.274Z,63.03
2018-01-12T05:50:42.796Z,59.40
2018-01-12T05:53:10.285Z,59.77
2018-01-12T05:55:37.778Z,65.57
2018-01-12T05:58:05.294Z,55.90
2018-01-12T06:00:33.553Z,65.90
2018-01-12T06:03:13.082Z,56.93
2018-01-12T06:05:52.377Z,58.10
2018-01-12T06:08:19.898Z,62.40
2018-01-12T06:10:47.399Z,59.17
2018-01-12T06:13:14.899Z,58.60
2018-01-12T06:15:42.417Z,54.97
2018-01-12T06:18:09.914Z,60.43
2018-01-12T06:20:37.434Z,53.73
2018-01-12T06:23:04.939Z,61.43
2018-01-12T06:25:32.431Z,49.93
2018-01-12T06:27:59.949Z,52.90
2018-01-12T06:30:27.444Z,57.17
2018-01-12T06:32:54.966Z,56.37
2018-01-12T06:35:22.467Z,53.53
2018-01-12T06:37:49.971Z,57.70
2018-01-12T06:40:17.490Z,78.83
2018-01-12T06:42:44.982Z,51.17
2018-01-12T06:45:12.501Z,53.00
2018-01-12T06:47:39.996Z,52.30
2018-01-12T06:50:07.486Z,59.10
2018-01-12T06:52:35.005Z,49.77
2018-01-12T06:55:02.506Z,55.60
2018-01-12T06:57:30.786Z,55.57
2018-01-12T06:59:59.047Z,51.50
2018-01-12T07:02:27.334Z,50.07
2018-01-12T07:04:55.590Z,53.23
2018-01-12T07:07:23.854Z,52.90
2018-01-12T07:09:51.370Z,53.60
2018-01-12T07:12:19.440Z,43.13
2018-01-12T07:14:46.962Z,49.53
2018-01-12T07:17:14.464Z,54.40
2018-01-12T07:19:41.978Z,52.23
2018-01-12T07:22:21.342Z,54.30
2018-01-12T07:24:49.632Z,57.07
2018-01-12T07:27:17.196Z,59.10
2018-01-12T07:29:44.693Z,53.37
2018-01-12T07:32:12.222Z,56.40
2018-01-12T07:34:39.713Z,56.33
2018-01-12T07:37:07.233Z,54.17
2018-01-12T07:39:34.721Z,58.77
2018-01-12T07:42:02.218Z,66.47
2018-01-12T07:44:30.501Z,56.33
2018-01-12T07:46:58.761Z,59.67
2018-01-12T07:49:27.050Z,58.23
2018-01-12T07:51:55.309Z,56.63
2018-01-12T07:54:22.825Z,56.50
2018-01-12T07:56:50.314Z,52.30
2018-01-12T07:59:17.843Z,56.20
2018-01-12T08:01:50.906Z,56.07
2018-01-12T08:04:18.426Z,57.17
2018-01-12T08:06:45.921Z,58.27
2018-01-12T08:09:13.413Z,63.73
2018-01-12T08:11:40.934Z,57.87
2018-01-12T08:14:08.420Z,61.37
2018-01-12T08:16:35.909Z,57.73
2018-01-12T08:19:03.454Z,58.83
2018-01-12T08:21:30.942Z,65.93
2018-01-12T08:23:59.231Z,63.10
2018-01-12T08:26:27.485Z,65.63
2018-01-12T08:28:54.986Z,65.97
2018-01-12T08:31:22.497Z,65.67
2018-01-12T08:33:49.990Z,81.20
2018-01-12T08:36:17.501Z,72.57
2018-01-12T08:38:45.006Z,68.90
2018-01-12T08:41:12.501Z,72.83
2018-01-12T08:43:40.013Z,65.93
2018-01-12T08:46:08.271Z,60.33
2018-01-12T08:48:35.786Z,57.83
2018-01-12T08:51:03.281Z,61.10
2018-01-12T08:53:30.777Z,70.40
2018-01-12T08:55:58.295Z,71.37
2018-01-12T08:58:25.797Z,65.97
2018-01-12T09:00:53.318Z,59.30
2018-01-12T09:03:20.813Z,63.33
2018-01-12T09:05:48.302Z,56.63
2018-01-12T09:08:15.819Z,63.40
2018-01-12T09:10:44.073Z,63.50
2018-01-12T09:13:23.399Z,60.20
2018-01-12T09:16:02.860Z,71.87
2018-01-12T09:18:32.098Z,66.20
2018-01-12T09:21:00.409Z,66.73
2018-01-12T09:23:30.837Z,72.50
2018-01-12T09:25:58.354Z,63.97
2018-01-12T09:28:25.850Z,69.33
2018-01-12T09:30:53.370Z,65.77
2018-01-12T09:33:20.861Z,62.47
2018-01-12T09:35:48.356Z,65.53
2018-01-12T09:38:20.364Z,70.83
2018-01-12T09:40:47.862Z,69.10
2018-01-12T09:43:15.373Z,67.03
2018-01-12T09:45:42.868Z,65.03
2018-01-12T09:48:22.192Z,65.53
2018-01-12T09:50:49.694Z,74.33
2018-01-12T09:53:17.217Z,81.60
2018-01-12T09:55:44.717Z,73.63
2018-01-12T09:58:12.230Z,75.80
2018-01-12T10:00:42.349Z,72.87
2018-01-12T10:03:09.876Z,71.83
2018-01-12T10:05:37.377Z,71.60
2018-01-12T10:08:04.878Z,65.03
2018-01-12T10:10:32.397Z,73.63
2018-01-12T10:12:59.884Z,81.13
2018-01-12T10:15:28.159Z,69.07
2018-01-12T10:17:56.420Z,78.97
2018-01-12T10:20:39.573Z,68.90
2018-01-12T10:23:07.070Z,67.87
2018-01-12T10:25:34.557Z,68.13
2018-01-12T10:28:02.069Z,68.60
2018-01-12T10:33:46.877Z,67.30
2018-01-12T10:36:20.837Z,76.07
2018-01-12T10:39:03.225Z,71.00
2018-01-12T10:44:27.005Z,62.70
2018-01-12T10:47:21.230Z,74.57
2018-01-12T10:52:51.957Z,80.20
2018-01-12T10:55:20.238Z,72.47
2018-01-12T10:57:47.725Z,83.97
2018-01-12T11:00:25.081Z,79.77
2018-01-12T11:02:53.342Z,77.30
2018-01-12T11:05:20.837Z,84.43
2018-01-12T11:07:48.360Z,74.23
2018-01-12T11:10:15.854Z,76.30
2018-01-12T11:12:43.369Z,88.50
2018-01-12T11:15:10.861Z,76.13
2018-01-12T11:17:39.573Z,74.93
2018-01-12T11:20:07.081Z,69.37
2018-01-12T11:22:34.569Z,70.37
2018-01-12T11:25:02.086Z,78.00
2018-01-12T11:27:29.573Z,80.17
2018-01-12T11:29:57.061Z,86.80
2018-01-12T11:32:24.569Z,86.77
2018-01-12T11:34:52.057Z,74.60
2018-01-12T11:37:19.574Z,74.63
2018-01-12T11:39:47.070Z,79.67
2018-01-12T11:42:15.322Z,70.53
2018-01-12T11:44:42.833Z,61.30
2018-01-12T11:47:10.346Z,62.90
2018-01-12T11:49:37.861Z,59.57
2018-01-12T11:52:05.356Z,64.93
2018-01-12T11:54:32.851Z,69.87
2018-01-12T11:57:00.359Z,66.23
2018-01-12T11:59:27.853Z,67.63
2018-01-12T12:01:56.131Z,61.23
2018-01-12T12:04:23.621Z,65.23
2018-01-12T12:06:51.109Z,72.30
2018-01-12T12:09:18.621Z,69.10
2018-01-12T12:11:46.119Z,62.97
2018-01-12T12:14:14.397Z,71.53
2018-01-12T12:16:41.890Z,68.77
2018-01-12T12:19:09.381Z,63.27
2018-01-12T12:21:36.885Z,63.80
2018-01-12T12:24:04.389Z,66.57
2018-01-12T12:26:31.916Z,65.30
2018-01-12T12:28:59.413Z,62.97
2018-01-12T12:31:26.929Z,60.90
2018-01-12T12:33:54.418Z,61.27
2018-01-12T12:36:21.910Z,62.30
2018-01-12T12:38:50.193Z,61.60
2018-01-12T12:41:17.685Z,56.80
2018-01-12T12:43:45.966Z,59.97
2018-01-12T12:46:14.226Z,63.13
2018-01-12T12:48:41.723Z,61.37
2018-01-12T12:51:09.237Z,62.97
2018-01-12T12:53:36.790Z,57.60
2018-01-12T12:56:04.271Z,63.83
2018-01-12T12:58:32.530Z,66.20
2018-01-12T13:01:00.052Z,63.07
2018-01-12T13:03:27.549Z,64.97
2018-01-12T13:05:55.038Z,70.00
2018-01-12T13:08:22.554Z,61.00
2018-01-12T13:10:50.041Z,61.63
2018-01-12T13:13:18.331Z,99.07
2018-01-12T13:15:45.826Z,64.43
2018-01-12T13:18:13.313Z,60.10
2018-01-12T13:20:40.822Z,57.07
2018-01-12T13:23:08.313Z,59.50
2018-01-12T13:25:35.821Z,60.77
2018-01-12T13:28:03.313Z,59.07
2018-01-12T13:30:30.825Z,55.07
2018-01-12T13:32:59.086Z,61.00
2018-01-12T13:35:26.577Z,91.83
2018-01-12T13:37:54.089Z,80.97
2018-01-12T13:40:21.586Z,74.10
2018-01-12T13:42:49.109Z,72.87
2018-01-12T13:45:16.593Z,64.37
2018-01-12T13:47:44.869Z,66.73
2018-01-12T13:50:13.133Z,62.73
2018-01-12T13:52:40.630Z,60.27
2018-01-12T13:55:08.158Z,68.10
2018-01-12T13:57:36.413Z,63.27
2018-01-12T14:00:03.954Z,56.17
2018-01-12T14:02:31.445Z,51.93
2018-01-12T14:04:58.937Z,56.60
2018-01-12T14:07:26.460Z,59.17
2018-01-12T14:09:54.722Z,57.30
2018-01-12T14:12:22.233Z,56.87
2018-01-12T14:14:49.721Z,58.03
2018-01-12T14:17:17.206Z,58.77
2018-01-12T14:19:44.722Z,56.03
2018-01-12T14:22:12.209Z,59.83
2018-01-12T14:24:39.718Z,52.23
2018-01-12T14:27:07.209Z,59.00
2018-01-12T14:29:34.699Z,56.17
2018-01-12T14:32:02.214Z,48.37
2018-01-12T14:34:29.702Z,49.57
2018-01-12T14:36:57.217Z,55.60
2018-01-12T14:39:25.169Z,50.03
2018-01-12T14:41:52.661Z,50.73
2018-01-12T14:44:20.216Z,57.70
2018-01-12T14:46:47.686Z,54.67
2018-01-12T14:49:15.201Z,59.30
2018-01-12T14:51:42.697Z,51.63
2018-01-12T14:54:10.185Z,46.50
2018-01-12T14:56:37.694Z,49.33
2018-01-12T14:59:05.185Z,53.90
2018-01-12T15:01:32.697Z,45.93
2018-01-12T15:04:00.185Z,50.60
2018-01-12T15:06:27.693Z,51.90
2018-01-12T15:08:55.181Z,46.23
2018-01-12T15:11:22.673Z,51.07
2018-01-12T15:13:50.191Z,56.53
2018-01-12T15:16:17.684Z,56.83
2018-01-12T15:18:45.206Z,61.97
2018-01-12T15:21:12.697Z,51.40
2018-01-12T15:23:40.256Z,51.33
2018-01-12T15:26:07.730Z,52.57
2018-01-12T15:28:35.230Z,56.50
2018-01-12T15:31:02.746Z,51.93
2018-01-12T15:33:30.238Z,51.03
2018-01-12T15:35:58.522Z,53.13
2018-01-12T15:38:26.018Z,53.17
2018-01-12T15:40:53.533Z,51.13
2018-01-12T15:43:21.025Z,53.90
2018-01-12T15:45:48.517Z,49.40
2018-01-12T15:48:16.033Z,50.87
2018-01-12T15:50:43.530Z,49.70
2018-01-12T15:53:11.042Z,55.87
2018-01-12T15:55:38.529Z,50.30
2018-01-12T15:58:06.817Z,50.37
2018-01-12T16:00:34.307Z,55.00
2018-01-12T16:03:02.570Z,51.63
2018-01-12T16:05:30.083Z,51.67
2018-01-12T16:07:57.574Z,50.03
2018-01-12T16:10:25.086Z,51.87
2018-01-12T16:12:52.577Z,53.23
2018-01-12T16:15:20.094Z,51.23
2018-01-12T16:17:47.589Z,52.27
2018-01-12T16:20:15.086Z,50.20
2018-01-12T16:22:43.367Z,52.47
2018-01-12T16:25:11.621Z,53.03
2018-01-12T16:27:39.138Z,52.90
2018-01-12T16:30:06.634Z,54.07
2018-01-12T16:32:34.126Z,50.70
2018-01-12T16:35:02.407Z,48.77
2018-01-12T16:37:30.665Z,58.10
2018-01-12T16:39:58.183Z,64.17
2018-01-12T16:42:25.676Z,54.00
2018-01-12T16:44:53.165Z,48.13
2018-01-12T16:47:20.681Z,52.10
2018-01-12T16:49:48.169Z,44.43
2018-01-12T16:52:16.450Z,43.87
2018-01-12T16:54:43.937Z,49.90
2018-01-12T16:57:11.455Z,44.60
2018-01-12T16:59:38.950Z,44.23
2018-01-12T17:02:06.450Z,44.30
2018-01-12T17:04:33.966Z,38.57
2018-01-12T17:07:01.462Z,42.33
2018-01-12T17:09:28.977Z,43.17
2018-01-12T17:11:56.470Z,54.17
2018-01-12T17:14:23.981Z,46.10
2018-01-12T17:16:51.477Z,45.07
2018-01-12T17:19:19.025Z,45.07
2018-01-12T17:21:47.265Z,48.10
2018-01-12T17:24:15.522Z,49.77
2018-01-12T17:26:43.042Z,50.80
2018-01-12T17:29:10.532Z,46.00
2018-01-12T17:31:38.044Z,51.73
2018-01-12T17:34:05.533Z,49.90
2018-01-12T17:36:33.021Z,48.67
2018-01-12T17:39:01.297Z,46.73
2018-01-12T17:41:29.549Z,51.53
2018-01-12T17:43:57.066Z,55.23
2018-01-12T17:46:24.558Z,50.17
2018-01-12T17:48:52.045Z,51.40
2018-01-12T17:51:20.331Z,47.63
2018-01-12T17:53:48.586Z,49.73
2018-01-12T17:56:16.102Z,50.87
2018-01-12T17:58:43.589Z,47.03
2018-01-12T18:01:11.109Z,53.80
2018-01-12T18:03:38.597Z,47.60
2018-01-12T18:06:06.089Z,50.40
2018-01-12T18:08:34.370Z,52.10
2018-01-12T18:11:02.630Z,49.40
2018-01-12T18:13:30.145Z,52.90
2018-01-12T18:15:57.642Z,48.53
2018-01-12T18:18:25.206Z,48.07
2018-01-12T18:20:52.673Z,51.37
2018-01-12T18:23:20.166Z,53.67
2018-01-12T18:25:47.677Z,50.97
2018-01-12T18:28:15.170Z,52.53
2018-01-12T18:30:42.686Z,48.40
2018-01-12T18:33:10.173Z,51.80
2018-01-12T18:35:38.425Z,53.07
2018-01-12T18:38:05.945Z,48.67
2018-01-12T18:40:33.434Z,56.83
2018-01-12T18:43:00.946Z,52.43
2018-01-12T18:45:28.450Z,45.47
2018-01-12T18:47:55.945Z,62.57
2018-01-12T18:50:24.226Z,53.10
2018-01-12T18:52:51.725Z,46.17
2018-01-12T18:55:19.242Z,50.77
2018-01-12T18:57:47.502Z,52.67
2018-01-12T19:00:15.018Z,49.23
2018-01-12T19:02:42.505Z,49.43
2018-01-12T19:05:09.998Z,46.67
2018-01-12T19:07:37.509Z,53.47
2018-01-12T19:10:05.006Z,53.23
2018-01-12T19:12:33.285Z,48.03
2018-01-12T19:15:01.541Z,53.77
2018-01-12T19:17:29.036Z,42.83
2018-01-12T19:19:56.549Z,46.17
2018-01-12T19:22:24.037Z,51.33
2018-01-12T19:24:52.317Z,42.90
2018-01-12T19:27:19.889Z,45.83
2018-01-12T19:29:47.403Z,42.70
2018-01-12T19:32:14.900Z,43.87
2018-01-12T19:34:42.394Z,45.43
2018-01-12T19:37:09.900Z,42.90
2018-01-12T19:39:37.390Z,41.37
2018-01-12T19:42:04.906Z,43.47
2018-01-12T19:44:32.396Z,50.03
2018-01-12T19:46:59.917Z,41.80
2018-01-12T19:49:27.406Z,42.90
2018-01-12T19:51:54.893Z,50.20
2018-01-12T19:54:22.401Z,70.90
2018-01-12T19:56:49.894Z,45.70
2018-01-12T19:59:17.409Z,38.50
2018-01-12T20:01:44.908Z,43.87
2018-01-12T20:04:12.397Z,37.97
2018-01-12T20:06:39.913Z,39.00
2018-01-12T20:09:07.409Z,40.27
2018-01-12T20:11:34.926Z,41.60
2018-01-12T20:14:02.409Z,41.50
2018-01-12T20:16:29.897Z,42.63
2018-01-12T20:18:57.405Z,39.43
2018-01-12T20:21:24.893Z,38.20
2018-01-12T20:23:52.410Z,42.47
2018-01-12T20:26:20.670Z,39.07
2018-01-12T20:28:48.955Z,42.63
2018-01-12T20:31:16.450Z,38.13
2018-01-12T20:33:43.966Z,47.40
2018-01-12T20:36:11.463Z,40.40
2018-01-12T20:38:38.977Z,37.87
2018-01-12T20:41:06.470Z,41.57
2018-01-12T20:43:33.965Z,38.00
2018-01-12T20:46:01.487Z,40.87
2018-01-12T20:48:28.977Z,38.03
2018-01-12T20:50:56.485Z,41.33
2018-01-12T20:53:23.973Z,35.93
2018-01-12T20:55:51.489Z,35.50
2018-01-12T20:58:19.743Z,38.43
2018-01-12T21:00:47.229Z,42.93
2018-01-12T21:03:14.758Z,38.90
2018-01-12T21:05:42.245Z,42.23
2018-01-12T21:08:10.522Z,39.83
2018-01-12T21:10:38.774Z,38.30
2018-01-12T21:13:06.285Z,42.80
2018-01-12T21:15:33.778Z,38.67
2018-01-12T21:18:01.273Z,38.47
2018-01-12T21:20:29.560Z,41.50
2018-01-12T21:22:57.054Z,45.77
2018-01-12T21:25:24.562Z,42.97
2018-01-12T21:27:52.813Z,44.20
2018-01-12T21:30:20.326Z,43.57
2018-01-12T21:32:47.813Z,40.97
2018-01-12T21:35:15.310Z,38.23
2018-01-12T21:37:42.821Z,39.53
2018-01-12T21:40:10.314Z,40.90
2018-01-12T21:42:37.801Z,43.00
2018-01-12T21:45:06.082Z,37.80
2018-01-12T21:47:33.569Z,40.77
2018-01-12T21:50:01.076Z,52.43
2018-01-12T21:52:28.569Z,66.63
2018-01-12T21:54:56.081Z,43.07
2018-01-12T21:57:23.570Z,39.73
2018-01-12T21:59:51.062Z,36.50
2018-01-12T22:02:18.574Z,40.80
2018-01-12T22:04:46.825Z,45.60
2018-01-12T22:07:14.337Z,41.80
2018-01-12T22:09:41.825Z,39.60
2018-01-12T22:12:09.333Z,45.10
2018-01-12T22:14:37.589Z,39.47
2018-01-12T22:17:05.877Z,36.17
2018-01-12T22:19:34.138Z,40.70
2018-01-12T22:22:01.625Z,41.27
2018-01-12T22:24:29.136Z,42.50
2018-01-12T22:26:56.626Z,35.27
2018-01-12T22:29:24.904Z,40.00
2018-01-12T22:31:53.157Z,40.37
2018-01-12T22:34:20.649Z,36.63
2018-01-12T22:36:48.929Z,38.93
2018-01-12T22:39:16.452Z,42.90
2018-01-12T22:41:43.949Z,41.67
2018-01-12T22:44:11.437Z,42.17
2018-01-12T22:46:38.954Z,42.93
2018-01-12T22:49:06.450Z,40.40
2018-01-12T22:51:33.940Z,42.53
2018-01-12T22:54:01.459Z,43.20
2018-01-12T22:56:28.954Z,41.60
2018-01-12T22:58:56.517Z,43.87
2018-01-12T23:01:23.989Z,39.90
2018-01-12T23:03:52.249Z,45.03
2018-01-12T23:06:19.760Z,47.63
2018-01-12T23:08:47.246Z,47.10
2018-01-12T23:11:14.761Z,43.10
2018-01-12T23:13:42.249Z,40.97
2018-01-12T23:16:09.738Z,46.57
2018-01-12T23:18:37.261Z,48.87
2018-01-12T23:21:04.753Z,42.30
2018-01-12T23:23:32.269Z,50.73
2018-01-12T23:25:59.761Z,47.13
2018-01-12T23:28:27.273Z,48.10
2018-01-12T23:30:54.769Z,46.10
2018-01-12T23:33:22.257Z,43.73
2018-01-12T23:35:49.769Z,54.30
2018-01-12T23:38:17.261Z,55.40
2018-01-12T23:40:44.774Z,50.93
2018-01-12T23:43:12.274Z,51.23
2018-01-12T23:45:39.786Z,45.60
2018-01-12T23:48:07.273Z,48.57
2018-01-12T23:50:35.534Z,43.03
2018-01-12T23:53:03.051Z,43.90
2018-01-12T23:55:31.313Z,41.37
2018-01-12T23:57:58.849Z,50.40
